createdAt,value
2019-05-11T00:01:56.075Z,40.75
2019-05-11T00:04:24.684Z,39.95
2019-05-11T00:06:53.262Z,39.73
2019-05-11T00:09:21.838Z,40.05
2019-05-11T00:11:50.715Z,40.78
2019-05-11T00:14:19.286Z,38.90
2019-05-11T00:16:48.032Z,40.58
2019-05-11T00:19:16.605Z,38.50
2019-05-11T00:21:45.356Z,38.02
2019-05-11T00:24:13.928Z,40.00
2019-05-11T00:26:42.490Z,38.60
2019-05-11T00:29:11.069Z,39.70
2019-05-11T00:31:39.674Z,37.48
2019-05-11T00:34:08.228Z,36.90
2019-05-11T00:36:36.805Z,37.75
2019-05-11T00:39:07.582Z,35.17
2019-05-11T00:41:36.384Z,37.53
2019-05-11T00:44:05.031Z,36.08
2019-05-11T00:46:33.610Z,35.83
2019-05-11T00:49:02.187Z,36.55
2019-05-11T00:51:30.856Z,36.93
2019-05-11T00:53:59.439Z,34.92
2019-05-11T00:56:28.047Z,33.75
2019-05-11T00:58:56.556Z,34.55
2019-05-11T01:01:25.134Z,35.50
2019-05-11T01:03:53.913Z,34.92
2019-05-11T01:06:22.513Z,33.67
2019-05-11T01:08:51.173Z,35.30
2019-05-11T01:11:19.751Z,34.90
2019-05-11T01:13:48.316Z,34.98
2019-05-11T01:16:16.818Z,34.13
2019-05-11T01:18:45.391Z,34.03
2019-05-11T01:21:14.088Z,36.55
2019-05-11T01:23:42.706Z,35.28
2019-05-11T01:26:11.278Z,33.02
2019-05-11T01:28:39.848Z,35.98
2019-05-11T01:31:08.414Z,33.42
2019-05-11T01:33:36.994Z,35.75
2019-05-11T01:36:05.527Z,36.80
2019-05-11T01:38:34.091Z,36.48
2019-05-11T01:41:03.150Z,37.10
2019-05-11T01:43:31.719Z,38.78
2019-05-11T01:46:00.289Z,38.13
2019-05-11T01:48:28.865Z,39.85
2019-05-11T01:50:57.409Z,39.03
2019-05-11T01:53:25.966Z,38.75
2019-05-11T01:55:54.662Z,40.00
2019-05-11T01:58:23.240Z,39.78
2019-05-11T02:00:51.816Z,39.45
2019-05-11T02:03:20.397Z,40.38
2019-05-11T02:05:51.633Z,40.55
2019-05-11T02:08:19.274Z,40.43
2019-05-11T02:10:47.841Z,38.23
2019-05-11T02:13:16.411Z,39.85
2019-05-11T02:15:44.990Z,39.98
2019-05-11T02:18:13.569Z,40.23
2019-05-11T02:20:42.140Z,40.25
2019-05-11T02:23:10.717Z,40.65
2019-05-11T02:25:39.288Z,41.10
2019-05-11T02:28:07.861Z,40.85
2019-05-11T02:30:36.539Z,42.65
2019-05-11T02:33:05.155Z,41.65
2019-05-11T02:35:33.655Z,42.50
2019-05-11T02:38:02.446Z,40.45
2019-05-11T02:40:31.009Z,39.20
2019-05-11T02:42:59.631Z,40.33
2019-05-11T02:45:40.179Z,40.63
2019-05-11T02:48:08.950Z,40.83
2019-05-11T02:50:39.208Z,40.12
2019-05-11T02:53:08.773Z,42.88
2019-05-11T02:55:37.857Z,40.73
2019-05-11T02:58:07.321Z,39.92
2019-05-11T03:00:38.703Z,40.23
2019-05-11T03:03:07.376Z,39.83
2019-05-11T03:05:36.177Z,40.20
2019-05-11T03:08:04.993Z,41.53
2019-05-11T03:10:33.581Z,40.88
2019-05-11T03:13:02.151Z,40.78
2019-05-11T03:15:30.727Z,42.20
2019-05-11T03:17:59.359Z,41.35
2019-05-11T03:20:27.945Z,41.73
2019-05-11T03:22:56.650Z,42.70
2019-05-11T03:25:25.226Z,41.75
2019-05-11T03:27:53.836Z,42.45
2019-05-11T03:30:22.507Z,40.75
2019-05-11T03:32:51.141Z,41.65
2019-05-11T03:35:19.710Z,40.78
2019-05-11T03:37:48.287Z,41.45
2019-05-11T03:40:17.101Z,41.60
2019-05-11T03:42:45.677Z,40.83
2019-05-11T03:45:14.686Z,41.25
2019-05-11T03:47:43.346Z,40.75
2019-05-11T03:50:12.012Z,43.05
2019-05-11T03:52:40.576Z,41.30
2019-05-11T03:55:09.142Z,41.48
2019-05-11T03:57:37.718Z,41.08
2019-05-11T04:00:08.108Z,41.13
2019-05-11T04:02:36.754Z,41.10
2019-05-11T04:05:06.647Z,40.38
2019-05-11T04:07:35.274Z,41.85
2019-05-11T04:10:05.219Z,43.17
2019-05-11T04:12:35.499Z,41.65
2019-05-11T04:15:05.809Z,41.58
2019-05-11T04:17:34.386Z,43.10
2019-05-11T04:20:03.154Z,41.35
2019-05-11T04:22:31.853Z,42.27
2019-05-11T04:25:00.386Z,39.78
2019-05-11T04:27:28.978Z,41.55
2019-05-11T04:29:57.554Z,42.65
2019-05-11T04:32:26.086Z,41.63
2019-05-11T04:34:54.710Z,41.53
2019-05-11T04:37:23.309Z,41.28
2019-05-11T04:39:51.934Z,41.65
2019-05-11T04:42:20.518Z,41.88
2019-05-11T04:44:52.272Z,42.13
2019-05-11T04:47:19.335Z,43.08
2019-05-11T04:49:47.876Z,42.08
2019-05-11T04:52:16.451Z,41.58
2019-05-11T04:54:45.080Z,41.80
2019-05-11T04:57:13.724Z,42.67
2019-05-11T04:59:42.312Z,43.40
2019-05-11T05:02:10.877Z,42.23
2019-05-11T05:04:39.569Z,42.43
2019-05-11T05:07:10.594Z,41.63
2019-05-11T05:09:42.560Z,42.90
2019-05-11T05:12:14.132Z,43.20
2019-05-11T05:14:38.928Z,41.70
2019-05-11T05:17:07.532Z,43.58
2019-05-11T05:19:36.158Z,43.08
2019-05-11T05:22:04.768Z,44.00
2019-05-11T05:24:33.343Z,43.63
2019-05-11T05:27:01.880Z,43.05
2019-05-11T05:29:30.455Z,44.00
2019-05-11T05:31:59.033Z,42.90
2019-05-11T05:34:27.614Z,41.50
2019-05-11T05:36:56.190Z,41.20
2019-05-11T05:39:24.768Z,40.25
2019-05-11T05:41:57.050Z,39.83
2019-05-11T05:44:27.509Z,39.60
2019-05-11T05:46:54.182Z,39.00
2019-05-11T05:49:22.764Z,39.10
2019-05-11T05:51:51.384Z,37.70
2019-05-11T05:54:20.037Z,37.80
2019-05-11T05:56:48.698Z,35.68
2019-05-11T05:59:17.328Z,34.53
2019-05-11T06:01:45.936Z,34.23
2019-05-11T06:04:14.590Z,33.25
2019-05-11T06:06:43.499Z,32.08
2019-05-11T06:09:12.108Z,31.27
2019-05-11T06:11:40.725Z,30.60
2019-05-11T06:14:09.336Z,29.37
2019-05-11T06:16:38.019Z,28.20
2019-05-11T06:19:06.617Z,26.80
2019-05-11T06:21:35.195Z,25.43
2019-05-11T06:24:06.720Z,25.95
2019-05-11T06:26:34.184Z,24.00
2019-05-11T06:29:02.701Z,23.15
2019-05-11T06:31:32.943Z,24.50
2019-05-11T06:34:01.572Z,22.48
2019-05-11T06:36:30.176Z,21.62
2019-05-11T06:38:58.760Z,21.80
2019-05-11T06:41:27.439Z,23.47
2019-05-11T06:44:01.690Z,21.60
2019-05-11T06:46:26.362Z,21.40
2019-05-11T06:48:55.071Z,20.75
2019-05-11T06:51:23.585Z,20.92
2019-05-11T06:53:52.209Z,20.32
2019-05-11T06:56:20.833Z,19.65
2019-05-11T06:58:49.415Z,19.32
2019-05-11T07:01:17.991Z,18.82
2019-05-11T07:03:46.569Z,18.52
2019-05-11T07:06:15.281Z,17.45
2019-05-11T07:08:43.853Z,16.07
2019-05-11T07:11:12.475Z,15.80
2019-05-11T07:13:41.064Z,16.82
2019-05-11T07:16:09.635Z,16.80
2019-05-11T07:18:38.136Z,16.07
2019-05-11T07:21:06.740Z,18.32
2019-05-11T07:23:35.282Z,15.25
2019-05-11T07:26:03.856Z,16.17
2019-05-11T07:28:32.437Z,16.67
2019-05-11T07:31:01.150Z,16.62
2019-05-11T07:33:29.672Z,16.27
2019-05-11T07:35:58.468Z,16.42
2019-05-11T07:38:27.808Z,17.10
2019-05-11T07:40:58.255Z,16.77
2019-05-11T07:43:28.718Z,16.73
2019-05-11T07:45:58.454Z,17.35
2019-05-11T07:48:27.887Z,16.97
2019-05-11T07:50:58.473Z,16.15
2019-05-11T07:53:27.935Z,16.62
2019-05-11T07:55:57.794Z,17.35
2019-05-11T07:58:28.546Z,16.75
2019-05-11T08:00:58.185Z,17.20
2019-05-11T08:03:28.365Z,16.82
2019-05-11T08:05:58.233Z,17.57
2019-05-11T08:08:28.350Z,17.00
2019-05-11T08:10:58.639Z,17.20
2019-05-11T08:13:28.225Z,18.37
2019-05-11T08:15:57.871Z,17.32
2019-05-11T08:18:28.222Z,16.75
2019-05-11T08:20:58.275Z,16.42
2019-05-11T08:23:28.488Z,16.05
2019-05-11T08:25:58.078Z,16.60
2019-05-11T08:28:28.778Z,15.13
2019-05-11T08:30:57.876Z,17.50
2019-05-11T08:33:28.425Z,15.28
2019-05-11T08:35:58.235Z,16.25
2019-05-11T08:38:28.548Z,14.83
2019-05-11T08:40:59.023Z,15.30
2019-05-11T08:43:28.479Z,14.53
2019-05-11T08:45:57.961Z,14.55
2019-05-11T08:48:28.260Z,15.40
2019-05-11T08:50:58.187Z,15.23
2019-05-11T08:53:28.465Z,15.53
2019-05-11T08:55:58.818Z,14.80
2019-05-11T08:58:27.917Z,14.70
2019-05-11T09:00:58.243Z,15.53
2019-05-11T09:03:28.390Z,14.53
2019-05-11T09:05:58.021Z,14.85
2019-05-11T09:08:28.328Z,15.35
2019-05-11T09:10:58.258Z,15.70
2019-05-11T09:13:27.916Z,14.80
2019-05-11T09:15:58.826Z,15.25
2019-05-11T09:18:27.955Z,16.27
2019-05-11T09:20:57.743Z,15.28
2019-05-11T09:23:34.711Z,15.80
2019-05-11T09:25:58.352Z,15.00
2019-05-11T09:28:29.266Z,16.05
2019-05-11T09:30:57.930Z,14.38
2019-05-11T09:33:28.334Z,14.43
2019-05-11T09:35:58.300Z,14.18
2019-05-11T09:38:27.826Z,14.47
2019-05-11T09:40:58.568Z,14.20
2019-05-11T09:43:28.405Z,14.53
2019-05-11T09:45:58.228Z,14.35
2019-05-11T09:48:28.424Z,14.03
2019-05-11T09:50:58.761Z,13.40
2019-05-11T09:53:28.322Z,13.28
2019-05-11T09:55:58.688Z,13.68
2019-05-11T09:58:28.117Z,14.47
2019-05-11T10:00:58.598Z,14.00
2019-05-11T10:03:28.171Z,14.70
2019-05-11T10:05:57.946Z,13.68
2019-05-11T10:08:28.685Z,13.45
2019-05-11T10:10:58.065Z,14.30
2019-05-11T10:13:27.814Z,14.43
2019-05-11T10:16:04.662Z,13.60
2019-05-11T10:18:28.187Z,14.10
2019-05-11T10:20:58.665Z,14.43
2019-05-11T10:23:27.854Z,12.43
2019-05-11T10:25:58.648Z,12.30
2019-05-11T10:28:28.458Z,11.30
2019-05-11T10:30:57.882Z,11.10
2019-05-11T10:33:28.116Z,10.75
2019-05-11T10:35:58.770Z,10.80
2019-05-11T10:38:28.513Z,11.25
2019-05-11T10:40:58.146Z,11.12
2019-05-11T10:43:28.805Z,10.15
2019-05-11T10:45:58.750Z,9.40
2019-05-11T10:48:28.229Z,9.50
2019-05-11T10:50:57.625Z,9.20
2019-05-11T10:53:27.793Z,8.90
2019-05-11T10:55:58.146Z,9.30
2019-05-11T10:58:28.563Z,8.90
2019-05-11T11:00:58.259Z,8.88
2019-05-11T11:03:28.368Z,9.60
2019-05-11T11:05:58.036Z,8.95
2019-05-11T11:08:27.827Z,9.25
2019-05-11T11:10:58.624Z,9.23
2019-05-11T11:13:28.142Z,10.32
2019-05-11T11:15:58.232Z,10.08
2019-05-11T11:18:28.766Z,9.85
2019-05-11T11:20:58.140Z,9.45
2019-05-11T11:23:28.480Z,9.85
2019-05-11T11:25:58.528Z,9.73
2019-05-11T11:28:28.002Z,9.78
2019-05-11T11:30:58.481Z,10.08
2019-05-11T11:33:27.717Z,9.40
2019-05-11T11:35:57.997Z,9.45
2019-05-11T11:38:28.684Z,9.15
2019-05-11T11:40:58.707Z,9.50
2019-05-11T11:43:28.740Z,9.48
2019-05-11T11:45:58.053Z,9.40
2019-05-11T11:48:27.983Z,10.78
2019-05-11T11:50:58.536Z,10.75
2019-05-11T11:53:28.000Z,10.00
2019-05-11T11:55:58.631Z,10.38
2019-05-11T11:58:27.678Z,9.65
2019-05-11T12:00:58.550Z,10.38
2019-05-11T12:03:27.702Z,9.95
2019-05-11T12:05:58.183Z,10.08
2019-05-11T12:08:28.210Z,9.18
2019-05-11T12:10:58.902Z,9.00
2019-05-11T12:13:29.727Z,8.15
2019-05-11T12:15:58.544Z,8.18
2019-05-11T12:18:28.650Z,7.75
2019-05-11T12:20:58.584Z,8.00
2019-05-11T12:23:28.450Z,8.53
2019-05-11T12:25:58.040Z,7.95
2019-05-11T12:28:27.616Z,8.25
2019-05-11T12:30:58.440Z,8.33
2019-05-11T12:33:27.963Z,7.90
2019-05-11T12:35:58.608Z,7.70
2019-05-11T12:38:27.648Z,8.48
2019-05-11T12:40:57.880Z,8.20
2019-05-11T12:43:27.713Z,7.85
2019-05-11T12:45:58.596Z,8.18
2019-05-11T12:48:28.513Z,8.00
2019-05-11T12:50:58.759Z,8.25
2019-05-11T12:53:28.040Z,7.60
2019-05-11T12:55:58.742Z,8.08
2019-05-11T12:58:28.102Z,7.85
2019-05-11T13:00:58.491Z,7.92
2019-05-11T13:03:27.848Z,8.30
2019-05-11T13:05:58.547Z,7.20
2019-05-11T13:08:27.715Z,7.08
2019-05-11T13:10:58.444Z,8.05
2019-05-11T13:13:28.559Z,7.70
2019-05-11T13:15:58.537Z,6.55
2019-05-11T13:18:27.990Z,7.72
2019-05-11T13:20:58.809Z,8.08
2019-05-11T13:23:27.846Z,6.72
2019-05-11T13:25:58.564Z,7.22
2019-05-11T13:28:28.446Z,7.10
2019-05-11T13:30:58.024Z,7.12
2019-05-11T13:33:28.007Z,7.55
2019-05-11T13:35:57.925Z,6.67
2019-05-11T13:38:28.258Z,8.38
2019-05-11T13:40:59.028Z,7.60
2019-05-11T13:43:28.159Z,7.25
2019-05-11T13:45:58.435Z,8.03
2019-05-11T13:48:28.123Z,6.90
2019-05-11T13:50:58.234Z,7.12
2019-05-11T13:53:27.641Z,7.20
2019-05-11T13:55:58.535Z,8.58
2019-05-11T13:58:27.760Z,7.33
2019-05-11T14:00:58.569Z,7.67
2019-05-11T14:03:27.944Z,7.83
2019-05-11T14:05:58.343Z,8.33
2019-05-11T14:08:27.824Z,8.43
2019-05-11T14:10:58.048Z,8.15
2019-05-11T14:13:28.566Z,8.95
2019-05-11T14:15:58.745Z,8.23
2019-05-11T14:18:28.160Z,9.25
2019-05-11T14:20:58.658Z,7.83
2019-05-11T14:23:30.822Z,8.05
2019-05-11T14:25:57.815Z,8.43
2019-05-11T14:28:28.494Z,8.15
2019-05-11T14:30:57.849Z,9.23
2019-05-11T14:33:28.301Z,8.95
2019-05-11T14:35:57.818Z,7.90
2019-05-11T14:38:28.291Z,8.23
2019-05-11T14:40:58.618Z,8.43
2019-05-11T14:43:27.800Z,7.85
2019-05-11T14:45:57.844Z,8.08
2019-05-11T14:48:29.806Z,8.70
2019-05-11T14:50:59.104Z,8.48
2019-05-11T14:53:28.348Z,8.55
2019-05-11T14:55:58.485Z,8.50
2019-05-11T14:58:28.020Z,8.23
2019-05-11T15:00:58.282Z,9.03
2019-05-11T15:03:28.755Z,7.90
2019-05-11T15:05:58.337Z,9.03
2019-05-11T15:08:28.668Z,8.08
2019-05-11T15:10:57.760Z,7.75
2019-05-11T15:13:28.671Z,6.97
2019-05-11T15:15:58.632Z,7.35
2019-05-11T15:18:36.125Z,6.92
2019-05-11T15:20:58.346Z,7.60
2019-05-11T15:23:28.479Z,8.15
2019-05-11T15:25:58.697Z,7.25
2019-05-11T15:28:28.509Z,7.67
2019-05-11T15:30:58.777Z,8.25
2019-05-11T15:33:28.037Z,8.40
2019-05-11T15:35:58.295Z,7.92
2019-05-11T15:38:28.434Z,7.22
2019-05-11T15:40:58.034Z,7.55
2019-05-11T15:43:28.277Z,6.72
2019-05-11T15:45:58.396Z,6.85
2019-05-11T15:48:27.808Z,6.80
2019-05-11T15:50:57.887Z,5.65
2019-05-11T15:53:26.697Z,5.33
2019-05-11T15:55:59.594Z,5.30
2019-05-11T15:58:25.693Z,5.40
2019-05-11T16:00:55.782Z,4.75
2019-05-11T16:03:25.154Z,4.72
2019-05-11T16:05:53.795Z,4.05
2019-05-11T16:08:22.539Z,3.98
2019-05-11T16:10:51.142Z,3.90
2019-05-11T16:13:19.764Z,4.03
2019-05-11T16:15:48.495Z,4.28
2019-05-11T16:18:18.918Z,4.00
2019-05-11T16:20:50.169Z,5.08
2019-05-11T16:23:20.243Z,4.00
2019-05-11T16:25:49.034Z,4.35
2019-05-11T16:28:19.338Z,4.10
2019-05-11T16:30:48.411Z,4.08
2019-05-11T16:33:17.977Z,4.30
2019-05-11T16:35:48.986Z,4.45
2019-05-11T16:38:18.817Z,4.90
2019-05-11T16:40:48.569Z,4.55
2019-05-11T16:43:19.195Z,4.12
2019-05-11T16:45:50.711Z,4.03
2019-05-11T16:48:18.394Z,4.30
2019-05-11T16:50:47.259Z,4.50
2019-05-11T16:53:17.981Z,4.00
2019-05-11T16:55:48.397Z,4.47
2019-05-11T16:58:19.870Z,4.12
2019-05-11T17:00:49.075Z,4.45
2019-05-11T17:03:17.162Z,4.28
2019-05-11T17:05:48.254Z,4.17
2019-05-11T17:08:16.024Z,4.70
2019-05-11T17:10:48.034Z,3.90
2019-05-11T17:13:18.053Z,4.67
2019-05-11T17:15:47.084Z,3.72
2019-05-11T17:18:15.660Z,3.92
2019-05-11T17:20:44.293Z,3.87
2019-05-11T17:23:12.965Z,3.90
2019-05-11T17:25:41.846Z,3.70
2019-05-11T17:28:10.523Z,3.52
2019-05-11T17:30:39.127Z,4.28
2019-05-11T17:33:08.722Z,3.83
2019-05-11T17:35:37.465Z,4.30
2019-05-11T17:38:07.927Z,3.77
2019-05-11T17:40:37.939Z,3.95
2019-05-11T17:43:09.074Z,3.60
2019-05-11T17:45:37.469Z,3.72
2019-05-11T17:48:08.462Z,4.10
2019-05-11T17:50:38.317Z,3.95
2019-05-11T17:53:07.329Z,4.20
2019-05-11T17:55:38.294Z,3.80
2019-05-11T17:58:08.738Z,3.70
2019-05-11T18:00:39.202Z,3.65
2019-05-11T18:03:11.259Z,3.62
2019-05-11T18:05:39.254Z,3.80
2019-05-11T18:08:08.832Z,3.22
2019-05-11T18:10:38.619Z,3.70
2019-05-11T18:13:07.654Z,3.52
2019-05-11T18:15:38.050Z,3.52
2019-05-11T18:18:09.453Z,3.20
2019-05-11T18:20:39.034Z,3.42
2019-05-11T18:23:08.999Z,3.55
2019-05-11T18:25:39.175Z,3.42
2019-05-11T18:28:07.853Z,4.33
2019-05-11T18:30:38.619Z,3.98
2019-05-11T18:33:08.430Z,3.65
2019-05-11T18:35:37.687Z,3.55
2019-05-11T18:38:08.608Z,3.60
2019-05-11T18:40:38.244Z,3.65
2019-05-11T18:43:08.617Z,3.55
2019-05-11T18:45:38.190Z,4.20
2019-05-11T18:48:08.189Z,4.00
2019-05-11T18:50:38.549Z,3.80
2019-05-11T18:53:09.179Z,3.65
2019-05-11T18:55:39.296Z,4.00
2019-05-11T18:58:08.275Z,3.90
2019-05-11T19:00:38.247Z,3.80
2019-05-11T19:03:08.979Z,4.50
2019-05-11T19:05:39.579Z,3.58
2019-05-11T19:08:09.011Z,3.80
2019-05-11T19:10:38.847Z,3.87
2019-05-11T19:13:08.683Z,3.65
2019-05-11T19:15:38.846Z,3.45
2019-05-11T19:18:08.229Z,3.77
2019-05-11T19:20:45.751Z,4.22
2019-05-11T19:23:09.934Z,4.08
2019-05-11T19:25:40.842Z,4.28
2019-05-11T19:28:10.965Z,4.08
2019-05-11T19:30:41.765Z,3.60
2019-05-11T19:33:11.943Z,3.70
2019-05-11T19:35:41.987Z,3.70
2019-05-11T19:38:11.959Z,4.40
2019-05-11T19:40:43.594Z,3.77
2019-05-11T19:44:08.580Z,3.50
2019-05-11T19:46:39.954Z,4.42
2019-05-11T19:49:10.575Z,3.80
2019-05-11T19:51:42.558Z,3.72
2019-05-11T19:54:14.135Z,3.85
2019-05-11T19:56:46.033Z,4.08
2019-05-11T19:59:17.949Z,3.92
2019-05-11T20:01:49.738Z,4.45
2019-05-11T20:04:22.412Z,5.12
2019-05-11T20:06:53.018Z,3.77
2019-05-11T20:09:24.524Z,4.65
2019-05-11T20:11:55.216Z,3.87
2019-05-11T20:14:28.385Z,3.83
2019-05-11T20:17:00.911Z,3.98
2019-05-11T20:19:32.493Z,4.22
2019-05-11T20:22:04.485Z,4.65
2019-05-11T20:24:36.260Z,4.28
2019-05-11T20:27:08.057Z,4.20
2019-05-11T20:29:38.797Z,4.37
2019-05-11T20:32:10.611Z,4.15
2019-05-11T20:34:42.554Z,3.98
2019-05-11T20:37:13.757Z,4.28
2019-05-11T20:39:43.241Z,4.58
2019-05-11T20:42:13.140Z,3.92
2019-05-11T20:44:45.002Z,4.75
2019-05-11T20:47:14.424Z,4.20
2019-05-11T20:49:43.471Z,4.67
2019-05-11T20:52:12.384Z,4.70
2019-05-11T20:54:41.143Z,4.10
2019-05-11T20:57:09.740Z,4.70
2019-05-11T20:59:38.332Z,4.37
2019-05-11T21:02:09.323Z,4.17
2019-05-11T21:04:38.688Z,4.72
2019-05-11T21:07:08.470Z,4.40
2019-05-11T21:09:37.984Z,4.47
2019-05-11T21:12:08.152Z,4.20
2019-05-11T21:14:38.522Z,5.17
2019-05-11T21:17:09.064Z,4.45
2019-05-11T21:19:38.771Z,4.53
2019-05-11T21:22:08.883Z,4.47
2019-05-11T21:24:38.034Z,4.45
2019-05-11T21:27:06.962Z,4.33
2019-05-11T21:29:35.524Z,4.17
2019-05-11T21:32:05.248Z,5.28
2019-05-11T21:34:34.434Z,4.50
2019-05-11T21:37:03.355Z,4.70
2019-05-11T21:39:32.244Z,4.50
2019-05-11T21:42:01.200Z,4.17
2019-05-11T21:44:30.699Z,4.40
2019-05-11T21:46:59.316Z,4.72
2019-05-11T21:49:28.319Z,5.12
2019-05-11T21:52:04.614Z,4.33
2019-05-11T21:54:29.928Z,4.75
2019-05-11T21:56:57.891Z,4.80
2019-05-11T21:59:27.714Z,4.62
2019-05-11T22:01:56.545Z,4.50
2019-05-11T22:04:25.123Z,4.85
2019-05-11T22:06:53.785Z,5.40
2019-05-11T22:09:22.591Z,4.95
2019-05-11T22:11:51.388Z,4.85
2019-05-11T22:14:20.024Z,4.60
2019-05-11T22:16:48.640Z,4.97
2019-05-11T22:19:17.753Z,4.67
2019-05-11T22:21:49.415Z,4.85
2019-05-11T22:24:17.968Z,4.55
2019-05-11T22:26:46.753Z,4.40
2019-05-11T22:29:15.345Z,5.05
2019-05-11T22:31:43.909Z,4.50
2019-05-11T22:34:12.545Z,4.47
2019-05-11T22:36:41.113Z,4.80
2019-05-11T22:39:09.736Z,4.55
2019-05-11T22:41:39.626Z,5.15
2019-05-11T22:44:11.056Z,4.87
2019-05-11T22:46:38.783Z,5.62
2019-05-11T22:49:08.462Z,4.80
2019-05-11T22:51:37.207Z,4.92
2019-05-11T22:54:08.118Z,4.83
2019-05-11T22:56:38.042Z,4.95
2019-05-11T22:59:08.323Z,4.65
2019-05-11T23:01:37.848Z,4.83
2019-05-11T23:04:06.661Z,5.97
2019-05-11T23:06:35.223Z,4.83
2019-05-11T23:09:07.929Z,4.62
2019-05-11T23:11:37.941Z,4.97
2019-05-11T23:14:09.769Z,5.25
2019-05-11T23:16:36.921Z,5.22
2019-05-11T23:19:09.457Z,5.12
2019-05-11T23:21:35.858Z,6.15
2019-05-11T23:24:04.424Z,5.00
2019-05-11T23:26:33.225Z,5.30
2019-05-11T23:29:01.906Z,5.67
2019-05-11T23:31:30.517Z,5.20
2019-05-11T23:33:59.085Z,5.35
2019-05-11T23:36:28.260Z,5.45
2019-05-11T23:38:58.552Z,5.83
2019-05-11T23:41:28.814Z,5.67
2019-05-11T23:43:58.389Z,4.85
2019-05-11T23:46:28.508Z,5.53
2019-05-11T23:48:58.098Z,5.50
2019-05-11T23:51:28.302Z,5.40
2019-05-11T23:53:58.850Z,5.30
2019-05-11T23:56:28.159Z,6.65
2019-05-11T23:58:57.874Z,5.30
